Airport View

Enter AWOS ICAO identifier for current METAR.

ex. KFNL

KMAF 210053Z 16016KT 10SM FEW085 SCT110 29/19 A2990 RMK AO2 LTG DSNT N SLP078 T02940194

21 Sep 2019 01:17

Phone: 432-561-5935

Other Area AWOS: KMDD - KODO - KE11 - KBPG

TAF KMAF 202324Z 2100/2124 16012KT P6SM SCT080 BKN150 FM211300 16016G23KT P6SM OVC020